sensor_id;sensor_type;location;lat;lon;timestamp;temperature;humidity
71563;DHT22;59391;52.504;13.438;2023-02-28T00:00:32;4.80;51.20
71563;DHT22;59391;52.504;13.438;2023-02-28T00:02:58;4.80;51.20
71563;DHT22;59391;52.504;13.438;2023-02-28T00:05:25;4.80;51.30
71563;DHT22;59391;52.504;13.438;2023-02-28T00:07:52;4.80;51.40
71563;DHT22;59391;52.504;13.438;2023-02-28T00:10:20;4.80;51.50
71563;DHT22;59391;52.504;13.438;2023-02-28T00:12:50;4.80;51.50
71563;DHT22;59391;52.504;13.438;2023-02-28T00:15:18;4.80;51.60
71563;DHT22;59391;52.504;13.438;2023-02-28T00:17:44;4.70;51.60
71563;DHT22;59391;52.504;13.438;2023-02-28T00:20:11;4.70;51.80
71563;DHT22;59391;52.504;13.438;2023-02-28T00:22:39;4.70;51.70
71563;DHT22;59391;52.504;13.438;2023-02-28T00:25:08;4.70;51.70
71563;DHT22;59391;52.504;13.438;2023-02-28T00:27:37;4.70;51.80
71563;DHT22;59391;52.504;13.438;2023-02-28T00:30:06;4.70;52.00
71563;DHT22;59391;52.504;13.438;2023-02-28T00:32:34;4.70;51.90
71563;DHT22;59391;52.504;13.438;2023-02-28T00:35:01;4.70;51.90
71563;DHT22;59391;52.504;13.438;2023-02-28T00:37:27;4.70;52.10
71563;DHT22;59391;52.504;13.438;2023-02-28T00:39:53;4.70;52.00
71563;DHT22;59391;52.504;13.438;2023-02-28T00:42:18;4.70;52.00
71563;DHT22;59391;52.504;13.438;2023-02-28T00:44:44;4.70;52.00
71563;DHT22;59391;52.504;13.438;2023-02-28T00:47:09;4.70;52.10
71563;DHT22;59391;52.504;13.438;2023-02-28T00:49:35;4.70;52.00
71563;DHT22;59391;52.504;13.438;2023-02-28T00:52:01;4.70;52.10
71563;DHT22;59391;52.504;13.438;2023-02-28T00:54:26;4.60;52.20
71563;DHT22;59391;52.504;13.438;2023-02-28T00:56:52;4.60;52.20
71563;DHT22;59391;52.504;13.438;2023-02-28T00:59:18;4.60;52.30
71563;DHT22;59391;52.504;13.438;2023-02-28T01:01:45;4.60;52.50
71563;DHT22;59391;52.504;13.438;2023-02-28T01:04:12;4.60;52.40
71563;DHT22;59391;52.504;13.438;2023-02-28T01:06:38;4.50;52.50
71563;DHT22;59391;52.504;13.438;2023-02-28T01:09:05;4.50;52.60
71563;DHT22;59391;52.504;13.438;2023-02-28T01:11:32;4.50;52.70
71563;DHT22;59391;52.504;13.438;2023-02-28T01:13:58;4.50;52.80
71563;DHT22;59391;52.504;13.438;2023-02-28T01:16:24;4.50;52.80
71563;DHT22;59391;52.504;13.438;2023-02-28T01:18:50;4.50;53.00
71563;DHT22;59391;52.504;13.438;2023-02-28T01:21:17;4.50;53.00
71563;DHT22;59391;52.504;13.438;2023-02-28T01:23:44;4.50;52.90
71563;DHT22;59391;52.504;13.438;2023-02-28T01:26:19;4.50;52.90
71563;DHT22;59391;52.504;13.438;2023-02-28T01:28:48;4.50;53.00
71563;DHT22;59391;52.504;13.438;2023-02-28T01:31:16;4.50;52.90
71563;DHT22;59391;52.504;13.438;2023-02-28T01:33:43;4.40;53.10
71563;DHT22;59391;52.504;13.438;2023-02-28T01:36:13;4.40;53.10
71563;DHT22;59391;52.504;13.438;2023-02-28T01:38:40;4.40;53.10
71563;DHT22;59391;52.504;13.438;2023-02-28T01:41:07;4.40;53.20
71563;DHT22;59391;52.504;13.438;2023-02-28T01:46:07;4.30;53.30
71563;DHT22;59391;52.504;13.438;2023-02-28T01:48:40;4.30;53.40
71563;DHT22;59391;52.504;13.438;2023-02-28T01:51:16;4.30;53.40
71563;DHT22;59391;52.504;13.438;2023-02-28T01:53:49;4.30;53.50
71563;DHT22;59391;52.504;13.438;2023-02-28T01:56:24;4.20;53.60
71563;DHT22;59391;52.504;13.438;2023-02-28T01:58:54;4.20;53.70
71563;DHT22;59391;52.504;13.438;2023-02-28T02:01:21;4.10;53.80
71563;DHT22;59391;52.504;13.438;2023-02-28T02:03:53;4.10;53.80
71563;DHT22;59391;52.504;13.438;2023-02-28T02:06:35;4.10;53.90
71563;DHT22;59391;52.504;13.438;2023-02-28T02:09:05;4.00;54.00
71563;DHT22;59391;52.504;13.438;2023-02-28T02:11:31;4.00;54.00
71563;DHT22;59391;52.504;13.438;2023-02-28T02:17:08;3.90;54.00
71563;DHT22;59391;52.504;13.438;2023-02-28T02:24:03;3.90;54.20
71563;DHT22;59391;52.504;13.438;2023-02-28T02:26:27;3.80;54.40
71563;DHT22;59391;52.504;13.438;2023-02-28T02:32:47;3.70;54.80
71563;DHT22;59391;52.504;13.438;2023-02-28T02:38:39;3.60;55.20
71563;DHT22;59391;52.504;13.438;2023-02-28T02:41:26;3.50;55.10
71563;DHT22;59391;52.504;13.438;2023-02-28T02:44:25;3.50;55.40
71563;DHT22;59391;52.504;13.438;2023-02-28T02:46:59;3.50;55.50
71563;DHT22;59391;52.504;13.438;2023-02-28T02:49:36;3.40;55.50
71563;DHT22;59391;52.504;13.438;2023-02-28T02:52:08;3.40;55.60
71563;DHT22;59391;52.504;13.438;2023-02-28T02:54:38;3.30;55.90
71563;DHT22;59391;52.504;13.438;2023-02-28T02:57:12;3.30;55.90
71563;DHT22;59391;52.504;13.438;2023-02-28T02:59:44;3.30;55.90
71563;DHT22;59391;52.504;13.438;2023-02-28T03:02:12;3.20;56.00
71563;DHT22;59391;52.504;13.438;2023-02-28T03:04:50;3.20;56.20
71563;DHT22;59391;52.504;13.438;2023-02-28T03:07:18;3.20;56.30
71563;DHT22;59391;52.504;13.438;2023-02-28T03:09:57;3.20;56.40
71563;DHT22;59391;52.504;13.438;2023-02-28T03:12:32;3.10;56.80
71563;DHT22;59391;52.504;13.438;2023-02-28T03:15:27;3.10;56.70
71563;DHT22;59391;52.504;13.438;2023-02-28T03:18:08;3.10;56.80
71563;DHT22;59391;52.504;13.438;2023-02-28T03:20:56;3.10;56.90
71563;DHT22;59391;52.504;13.438;2023-02-28T03:24:11;3.10;57.00
71563;DHT22;59391;52.504;13.438;2023-02-28T03:27:11;3.10;56.90
71563;DHT22;59391;52.504;13.438;2023-02-28T03:29:51;3.10;56.90
71563;DHT22;59391;52.504;13.438;2023-02-28T03:32:31;3.10;57.00
71563;DHT22;59391;52.504;13.438;2023-02-28T03:35:06;3.10;56.90
71563;DHT22;59391;52.504;13.438;2023-02-28T03:37:38;3.10;57.00
71563;DHT22;59391;52.504;13.438;2023-02-28T03:40:11;3.00;57.00
71563;DHT22;59391;52.504;13.438;2023-02-28T03:42:43;3.10;57.10
71563;DHT22;59391;52.504;13.438;2023-02-28T03:45:18;3.00;57.10
71563;DHT22;59391;52.504;13.438;2023-02-28T03:50:44;3.00;57.20
71563;DHT22;59391;52.504;13.438;2023-02-28T03:53:16;3.00;57.10
71563;DHT22;59391;52.504;13.438;2023-02-28T03:55:56;2.90;57.10
71563;DHT22;59391;52.504;13.438;2023-02-28T03:58:39;2.90;57.20
71563;DHT22;59391;52.504;13.438;2023-02-28T04:01:17;2.90;57.30
71563;DHT22;59391;52.504;13.438;2023-02-28T04:03:47;2.90;57.20
71563;DHT22;59391;52.504;13.438;2023-02-28T04:06:20;2.90;57.30
71563;DHT22;59391;52.504;13.438;2023-02-28T04:08:48;2.80;57.40
71563;DHT22;59391;52.504;13.438;2023-02-28T04:11:22;2.80;57.50
71563;DHT22;59391;52.504;13.438;2023-02-28T04:13:52;2.80;57.60
71563;DHT22;59391;52.504;13.438;2023-02-28T04:16:17;2.80;57.70
71563;DHT22;59391;52.504;13.438;2023-02-28T04:18:44;2.80;57.70
71563;DHT22;59391;52.504;13.438;2023-02-28T04:21:10;2.70;57.80
71563;DHT22;59391;52.504;13.438;2023-02-28T04:23:37;2.70;57.80
71563;DHT22;59391;52.504;13.438;2023-02-28T04:26:03;2.70;57.70
71563;DHT22;59391;52.504;13.438;2023-02-28T04:28:29;2.70;57.70
71563;DHT22;59391;52.504;13.438;2023-02-28T04:30:56;2.70;57.70
71563;DHT22;59391;52.504;13.438;2023-02-28T04:33:23;2.60;57.80
71563;DHT22;59391;52.504;13.438;2023-02-28T04:36:02;2.60;57.90
71563;DHT22;59391;52.504;13.438;2023-02-28T04:38:33;2.60;57.90
71563;DHT22;59391;52.504;13.438;2023-02-28T04:41:00;2.60;58.00
71563;DHT22;59391;52.504;13.438;2023-02-28T04:43:27;2.50;58.20
71563;DHT22;59391;52.504;13.438;2023-02-28T04:45:54;2.60;58.20
71563;DHT22;59391;52.504;13.438;2023-02-28T04:48:23;2.50;58.40
71563;DHT22;59391;52.504;13.438;2023-02-28T04:51:04;2.50;58.40
71563;DHT22;59391;52.504;13.438;2023-02-28T04:53:31;2.50;58.70
71563;DHT22;59391;52.504;13.438;2023-02-28T04:55:58;2.50;58.60
71563;DHT22;59391;52.504;13.438;2023-02-28T04:58:24;2.50;58.50
71563;DHT22;59391;52.504;13.438;2023-02-28T05:00:53;2.40;58.60
71563;DHT22;59391;52.504;13.438;2023-02-28T05:03:20;2.40;58.60
71563;DHT22;59391;52.504;13.438;2023-02-28T05:05:47;2.40;58.60
71563;DHT22;59391;52.504;13.438;2023-02-28T05:08:13;2.40;58.80
71563;DHT22;59391;52.504;13.438;2023-02-28T05:10:38;2.40;58.80
71563;DHT22;59391;52.504;13.438;2023-02-28T05:13:04;2.40;58.60
71563;DHT22;59391;52.504;13.438;2023-02-28T05:15:30;2.30;58.50
71563;DHT22;59391;52.504;13.438;2023-02-28T05:17:55;2.30;58.40
71563;DHT22;59391;52.504;13.438;2023-02-28T05:20:21;2.30;58.50
71563;DHT22;59391;52.504;13.438;2023-02-28T05:22:47;2.30;58.60
71563;DHT22;59391;52.504;13.438;2023-02-28T05:25:18;2.30;58.60
71563;DHT22;59391;52.504;13.438;2023-02-28T05:27:47;2.20;58.60
71563;DHT22;59391;52.504;13.438;2023-02-28T05:30:13;2.30;58.50
71563;DHT22;59391;52.504;13.438;2023-02-28T05:32:39;2.30;58.60
71563;DHT22;59391;52.504;13.438;2023-02-28T05:35:10;2.20;58.40
71563;DHT22;59391;52.504;13.438;2023-02-28T05:37:37;2.20;58.40
71563;DHT22;59391;52.504;13.438;2023-02-28T05:40:05;2.20;58.50
71563;DHT22;59391;52.504;13.438;2023-02-28T05:42:32;2.20;58.60
71563;DHT22;59391;52.504;13.438;2023-02-28T05:44:58;2.20;58.60
71563;DHT22;59391;52.504;13.438;2023-02-28T05:47:24;2.20;58.60
71563;DHT22;59391;52.504;13.438;2023-02-28T05:49:49;2.20;58.70
71563;DHT22;59391;52.504;13.438;2023-02-28T05:52:15;2.20;58.70
71563;DHT22;59391;52.504;13.438;2023-02-28T05:54:41;2.20;58.70
71563;DHT22;59391;52.504;13.438;2023-02-28T05:57:07;2.20;58.70
71563;DHT22;59391;52.504;13.438;2023-02-28T05:59:33;2.20;58.90
71563;DHT22;59391;52.504;13.438;2023-02-28T06:01:58;2.10;58.90
71563;DHT22;59391;52.504;13.438;2023-02-28T06:04:24;2.10;58.90
71563;DHT22;59391;52.504;13.438;2023-02-28T06:06:50;2.20;58.80
71563;DHT22;59391;52.504;13.438;2023-02-28T06:09:17;2.20;58.80
71563;DHT22;59391;52.504;13.438;2023-02-28T06:11:43;2.20;58.80
71563;DHT22;59391;52.504;13.438;2023-02-28T06:14:15;2.20;58.90
71563;DHT22;59391;52.504;13.438;2023-02-28T06:16:43;2.20;58.90
71563;DHT22;59391;52.504;13.438;2023-02-28T06:19:09;2.20;58.90
71563;DHT22;59391;52.504;13.438;2023-02-28T06:21:35;2.20;59.10
71563;DHT22;59391;52.504;13.438;2023-02-28T06:24:01;2.20;59.10
71563;DHT22;59391;52.504;13.438;2023-02-28T06:26:27;2.20;59.10
71563;DHT22;59391;52.504;13.438;2023-02-28T06:28:53;2.20;59.20
71563;DHT22;59391;52.504;13.438;2023-02-28T06:31:20;2.20;59.10
71563;DHT22;59391;52.504;13.438;2023-02-28T06:33:46;2.20;59.30
71563;DHT22;59391;52.504;13.438;2023-02-28T06:36:14;2.20;59.40
71563;DHT22;59391;52.504;13.438;2023-02-28T06:38:41;2.30;59.50
71563;DHT22;59391;52.504;13.438;2023-02-28T06:41:08;2.30;59.50
71563;DHT22;59391;52.504;13.438;2023-02-28T06:43:36;2.30;59.60
71563;DHT22;59391;52.504;13.438;2023-02-28T06:46:06;2.30;59.60
71563;DHT22;59391;52.504;13.438;2023-02-28T06:48:34;2.30;59.70
71563;DHT22;59391;52.504;13.438;2023-02-28T06:51:05;2.30;59.80
71563;DHT22;59391;52.504;13.438;2023-02-28T06:53:35;2.30;59.90
71563;DHT22;59391;52.504;13.438;2023-02-28T06:56:10;2.40;60.00
71563;DHT22;59391;52.504;13.438;2023-02-28T06:58:37;2.40;60.00
71563;DHT22;59391;52.504;13.438;2023-02-28T07:01:07;2.40;59.90
71563;DHT22;59391;52.504;13.438;2023-02-28T07:03:35;2.40;59.90
71563;DHT22;59391;52.504;13.438;2023-02-28T07:06:01;2.50;59.80
71563;DHT22;59391;52.504;13.438;2023-02-28T07:08:27;2.50;59.50
71563;DHT22;59391;52.504;13.438;2023-02-28T07:10:57;2.60;59.30
71563;DHT22;59391;52.504;13.438;2023-02-28T07:13:24;2.60;59.10
71563;DHT22;59391;52.504;13.438;2023-02-28T07:15:57;2.60;58.90
71563;DHT22;59391;52.504;13.438;2023-02-28T07:18:31;2.60;58.80
71563;DHT22;59391;52.504;13.438;2023-02-28T07:20:57;2.70;58.80
71563;DHT22;59391;52.504;13.438;2023-02-28T07:23:23;2.80;58.70
71563;DHT22;59391;52.504;13.438;2023-02-28T07:25:50;2.80;58.40
71563;DHT22;59391;52.504;13.438;2023-02-28T07:28:16;2.80;58.10
71563;DHT22;59391;52.504;13.438;2023-02-28T07:30:42;2.90;57.50
71563;DHT22;59391;52.504;13.438;2023-02-28T07:33:08;2.90;57.00
71563;DHT22;59391;52.504;13.438;2023-02-28T07:35:34;3.00;56.50
71563;DHT22;59391;52.504;13.438;2023-02-28T07:38:00;3.00;56.10
71563;DHT22;59391;52.504;13.438;2023-02-28T07:40:26;3.10;55.20
71563;DHT22;59391;52.504;13.438;2023-02-28T07:42:52;3.10;55.10
71563;DHT22;59391;52.504;13.438;2023-02-28T07:45:17;3.20;54.70
71563;DHT22;59391;52.504;13.438;2023-02-28T07:47:44;3.30;54.60
71563;DHT22;59391;52.504;13.438;2023-02-28T07:50:12;3.30;54.00
71563;DHT22;59391;52.504;13.438;2023-02-28T07:52:39;3.40;53.90
71563;DHT22;59391;52.504;13.438;2023-02-28T07:55:07;3.40;53.60
71563;DHT22;59391;52.504;13.438;2023-02-28T07:57:34;3.50;53.20
71563;DHT22;59391;52.504;13.438;2023-02-28T08:00:02;3.60;52.10
71563;DHT22;59391;52.504;13.438;2023-02-28T08:02:29;3.60;50.60
71563;DHT22;59391;52.504;13.438;2023-02-28T08:04:55;3.70;50.20
71563;DHT22;59391;52.504;13.438;2023-02-28T08:07:21;3.80;49.20
71563;DHT22;59391;52.504;13.438;2023-02-28T08:09:46;3.90;48.80
71563;DHT22;59391;52.504;13.438;2023-02-28T08:12:12;4.00;50.00
71563;DHT22;59391;52.504;13.438;2023-02-28T08:14:38;4.10;48.90
71563;DHT22;59391;52.504;13.438;2023-02-28T08:17:05;4.30;48.90
71563;DHT22;59391;52.504;13.438;2023-02-28T08:19:31;4.50;47.00
71563;DHT22;59391;52.504;13.438;2023-02-28T08:21:58;4.80;46.50
71563;DHT22;59391;52.504;13.438;2023-02-28T08:24:23;5.20;45.50
71563;DHT22;59391;52.504;13.438;2023-02-28T08:26:49;5.50;44.70
71563;DHT22;59391;52.504;13.438;2023-02-28T08:29:15;5.90;43.50
71563;DHT22;59391;52.504;13.438;2023-02-28T08:31:41;6.30;43.50
71563;DHT22;59391;52.504;13.438;2023-02-28T08:34:13;6.70;42.20
71563;DHT22;59391;52.504;13.438;2023-02-28T08:36:40;7.10;40.50
71563;DHT22;59391;52.504;13.438;2023-02-28T08:39:07;7.40;38.70
71563;DHT22;59391;52.504;13.438;2023-02-28T08:41:33;7.70;39.10
71563;DHT22;59391;52.504;13.438;2023-02-28T08:43:59;7.90;37.70
71563;DHT22;59391;52.504;13.438;2023-02-28T08:46:25;8.20;37.60
71563;DHT22;59391;52.504;13.438;2023-02-28T08:48:52;8.30;37.80
71563;DHT22;59391;52.504;13.438;2023-02-28T08:51:19;8.40;35.70
71563;DHT22;59391;52.504;13.438;2023-02-28T08:53:53;8.50;35.10
71563;DHT22;59391;52.504;13.438;2023-02-28T08:56:20;8.50;33.40
71563;DHT22;59391;52.504;13.438;2023-02-28T08:58:48;8.60;34.10
71563;DHT22;59391;52.504;13.438;2023-02-28T09:01:20;8.60;33.90
71563;DHT22;59391;52.504;13.438;2023-02-28T09:03:49;8.60;34.20
71563;DHT22;59391;52.504;13.438;2023-02-28T09:06:17;8.70;34.20
71563;DHT22;59391;52.504;13.438;2023-02-28T09:08:44;8.70;33.90
71563;DHT22;59391;52.504;13.438;2023-02-28T09:11:11;8.80;34.00
71563;DHT22;59391;52.504;13.438;2023-02-28T09:13:37;8.80;34.20
71563;DHT22;59391;52.504;13.438;2023-02-28T09:16:06;8.90;33.20
71563;DHT22;59391;52.504;13.438;2023-02-28T09:18:35;9.00;31.80
71563;DHT22;59391;52.504;13.438;2023-02-28T09:21:06;9.00;31.70
71563;DHT22;59391;52.504;13.438;2023-02-28T09:23:34;9.20;32.50
71563;DHT22;59391;52.504;13.438;2023-02-28T09:26:00;9.40;32.40
71563;DHT22;59391;52.504;13.438;2023-02-28T09:28:26;9.60;32.40
71563;DHT22;59391;52.504;13.438;2023-02-28T09:30:53;9.80;31.60
71563;DHT22;59391;52.504;13.438;2023-02-28T09:33:20;10.20;31.50
71563;DHT22;59391;52.504;13.438;2023-02-28T09:35:48;10.40;31.10
71563;DHT22;59391;52.504;13.438;2023-02-28T09:38:14;10.70;31.00
71563;DHT22;59391;52.504;13.438;2023-02-28T09:40:56;11.00;31.40
71563;DHT22;59391;52.504;13.438;2023-02-28T09:43:26;11.30;31.00
71563;DHT22;59391;52.504;13.438;2023-02-28T09:46:00;11.60;30.00
71563;DHT22;59391;52.504;13.438;2023-02-28T09:48:36;11.80;29.00
71563;DHT22;59391;52.504;13.438;2023-02-28T09:54:23;12.30;28.30
71563;DHT22;59391;52.504;13.438;2023-02-28T09:56:53;12.60;28.10
71563;DHT22;59391;52.504;13.438;2023-02-28T10:05:41;12.60;27.90
71563;DHT22;59391;52.504;13.438;2023-02-28T10:08:41;12.80;27.90
71563;DHT22;59391;52.504;13.438;2023-02-28T10:11:16;12.80;25.80
71563;DHT22;59391;52.504;13.438;2023-02-28T10:16:38;12.70;27.00
71563;DHT22;59391;52.504;13.438;2023-02-28T10:22:25;12.90;26.80
71563;DHT22;59391;52.504;13.438;2023-02-28T10:24:58;12.90;26.10
71563;DHT22;59391;52.504;13.438;2023-02-28T10:27:30;12.90;25.90
71563;DHT22;59391;52.504;13.438;2023-02-28T10:29:59;13.00;27.20
71563;DHT22;59391;52.504;13.438;2023-02-28T10:32:34;13.00;26.00
71563;DHT22;59391;52.504;13.438;2023-02-28T10:37:55;13.00;26.00
71563;DHT22;59391;52.504;13.438;2023-02-28T10:42:58;13.20;26.30
71563;DHT22;59391;52.504;13.438;2023-02-28T10:45:33;13.40;26.00
71563;DHT22;59391;52.504;13.438;2023-02-28T10:48:05;13.60;25.40
71563;DHT22;59391;52.504;13.438;2023-02-28T10:50:52;13.70;25.40
71563;DHT22;59391;52.504;13.438;2023-02-28T10:53:25;13.90;25.10
71563;DHT22;59391;52.504;13.438;2023-02-28T10:56:04;13.90;25.90
71563;DHT22;59391;52.504;13.438;2023-02-28T11:01:18;14.30;25.30
71563;DHT22;59391;52.504;13.438;2023-02-28T11:04:17;14.50;25.40
71563;DHT22;59391;52.504;13.438;2023-02-28T11:07:00;14.60;24.80
71563;DHT22;59391;52.504;13.438;2023-02-28T11:09:33;14.60;24.80
71563;DHT22;59391;52.504;13.438;2023-02-28T11:12:03;14.60;24.50
71563;DHT22;59391;52.504;13.438;2023-02-28T11:14:40;14.50;24.90
71563;DHT22;59391;52.504;13.438;2023-02-28T11:17:18;14.60;25.10
71563;DHT22;59391;52.504;13.438;2023-02-28T11:19:48;14.70;24.80
71563;DHT22;59391;52.504;13.438;2023-02-28T11:22:23;14.90;24.80
71563;DHT22;59391;52.504;13.438;2023-02-28T11:24:55;15.10;24.50
71563;DHT22;59391;52.504;13.438;2023-02-28T11:29:58;15.50;25.20
71563;DHT22;59391;52.504;13.438;2023-02-28T11:32:29;15.80;25.40
71563;DHT22;59391;52.504;13.438;2023-02-28T11:35:03;16.10;24.90
71563;DHT22;59391;52.504;13.438;2023-02-28T11:37:35;16.50;24.60
71563;DHT22;59391;52.504;13.438;2023-02-28T11:40:02;16.80;24.70
71563;DHT22;59391;52.504;13.438;2023-02-28T11:42:46;17.00;23.90
71563;DHT22;59391;52.504;13.438;2023-02-28T11:45:43;17.30;23.80
71563;DHT22;59391;52.504;13.438;2023-02-28T11:48:26;17.60;23.90
71563;DHT22;59391;52.504;13.438;2023-02-28T11:54:01;18.10;22.10
71563;DHT22;59391;52.504;13.438;2023-02-28T11:56:44;18.20;22.40
71563;DHT22;59391;52.504;13.438;2023-02-28T12:02:20;18.60;22.00
71563;DHT22;59391;52.504;13.438;2023-02-28T12:05:04;18.70;22.20
71563;DHT22;59391;52.504;13.438;2023-02-28T12:07:52;18.90;22.50
71563;DHT22;59391;52.504;13.438;2023-02-28T12:10:35;19.00;21.90
71563;DHT22;59391;52.504;13.438;2023-02-28T12:13:29;19.10;22.60
71563;DHT22;59391;52.504;13.438;2023-02-28T12:16:34;19.20;22.30
71563;DHT22;59391;52.504;13.438;2023-02-28T12:24:50;19.50;21.60
71563;DHT22;59391;52.504;13.438;2023-02-28T12:27:20;19.70;21.60
71563;DHT22;59391;52.504;13.438;2023-02-28T12:29:53;19.90;21.40
71563;DHT22;59391;52.504;13.438;2023-02-28T12:32:27;20.00;21.20
71563;DHT22;59391;52.504;13.438;2023-02-28T12:35:02;20.20;20.70
71563;DHT22;59391;52.504;13.438;2023-02-28T12:37:40;20.40;20.80
71563;DHT22;59391;52.504;13.438;2023-02-28T12:40:15;20.40;20.40
71563;DHT22;59391;52.504;13.438;2023-02-28T12:42:47;20.50;20.70
71563;DHT22;59391;52.504;13.438;2023-02-28T12:45:26;20.40;20.60
71563;DHT22;59391;52.504;13.438;2023-02-28T12:48:00;20.30;20.30
71563;DHT22;59391;52.504;13.438;2023-02-28T12:50:32;20.40;20.40
71563;DHT22;59391;52.504;13.438;2023-02-28T12:53:06;20.30;20.20
71563;DHT22;59391;52.504;13.438;2023-02-28T12:55:41;20.20;20.20
71563;DHT22;59391;52.504;13.438;2023-02-28T13:01:42;20.20;21.00
71563;DHT22;59391;52.504;13.438;2023-02-28T13:04:32;20.20;20.00
71563;DHT22;59391;52.504;13.438;2023-02-28T13:10:22;20.00;20.30
71563;DHT22;59391;52.504;13.438;2023-02-28T13:12:50;20.00;20.90
71563;DHT22;59391;52.504;13.438;2023-02-28T13:15:26;20.00;21.50
71563;DHT22;59391;52.504;13.438;2023-02-28T13:17:57;20.00;20.20
71563;DHT22;59391;52.504;13.438;2023-02-28T13:20:27;20.10;21.30
71563;DHT22;59391;52.504;13.438;2023-02-28T13:22:58;20.30;20.30
71563;DHT22;59391;52.504;13.438;2023-02-28T13:28:12;20.50;19.90
71563;DHT22;59391;52.504;13.438;2023-02-28T13:33:33;20.60;19.30
71563;DHT22;59391;52.504;13.438;2023-02-28T13:39:00;20.70;20.00
71563;DHT22;59391;52.504;13.438;2023-02-28T13:41:47;20.70;19.20
71563;DHT22;59391;52.504;13.438;2023-02-28T13:44:18;20.60;19.10
71563;DHT22;59391;52.504;13.438;2023-02-28T13:51:53;20.00;19.40
71563;DHT22;59391;52.504;13.438;2023-02-28T13:54:55;19.80;19.40
71563;DHT22;59391;52.504;13.438;2023-02-28T13:57:59;19.50;19.60
71563;DHT22;59391;52.504;13.438;2023-02-28T14:03:45;18.50;20.30
71563;DHT22;59391;52.504;13.438;2023-02-28T14:06:27;18.20;20.80
71563;DHT22;59391;52.504;13.438;2023-02-28T14:09:01;18.00;21.40
71563;DHT22;59391;52.504;13.438;2023-02-28T14:11:40;17.90;21.40
71563;DHT22;59391;52.504;13.438;2023-02-28T14:14:08;18.00;21.80
71563;DHT22;59391;52.504;13.438;2023-02-28T14:16:55;18.10;21.90
71563;DHT22;59391;52.504;13.438;2023-02-28T14:19:27;18.30;21.40
71563;DHT22;59391;52.504;13.438;2023-02-28T14:25:23;18.90;21.70
71563;DHT22;59391;52.504;13.438;2023-02-28T14:28:25;19.10;20.60
71563;DHT22;59391;52.504;13.438;2023-02-28T14:31:09;19.30;20.40
71563;DHT22;59391;52.504;13.438;2023-02-28T14:34:03;19.30;20.40
71563;DHT22;59391;52.504;13.438;2023-02-28T14:36:42;19.20;21.00
71563;DHT22;59391;52.504;13.438;2023-02-28T14:39:17;19.20;20.80
71563;DHT22;59391;52.504;13.438;2023-02-28T14:41:47;19.10;20.80
71563;DHT22;59391;52.504;13.438;2023-02-28T14:44:16;19.10;20.90
71563;DHT22;59391;52.504;13.438;2023-02-28T14:46:43;19.00;20.90
71563;DHT22;59391;52.504;13.438;2023-02-28T14:49:44;19.00;20.60
71563;DHT22;59391;52.504;13.438;2023-02-28T14:54:46;19.00;20.50
71563;DHT22;59391;52.504;13.438;2023-02-28T14:57:28;19.00;20.90
71563;DHT22;59391;52.504;13.438;2023-02-28T15:03:00;18.90;20.10
71563;DHT22;59391;52.504;13.438;2023-02-28T15:05:32;18.90;20.70
71563;DHT22;59391;52.504;13.438;2023-02-28T15:08:06;18.70;20.80
71563;DHT22;59391;52.504;13.438;2023-02-28T15:10:38;18.60;20.70
71563;DHT22;59391;52.504;13.438;2023-02-28T15:13:12;18.30;20.90
71563;DHT22;59391;52.504;13.438;2023-02-28T15:15:44;18.00;20.90
71563;DHT22;59391;52.504;13.438;2023-02-28T15:18:27;17.70;21.00
71563;DHT22;59391;52.504;13.438;2023-02-28T15:21:18;17.30;21.30
71563;DHT22;59391;52.504;13.438;2023-02-28T15:26:47;16.20;22.20
71563;DHT22;59391;52.504;13.438;2023-02-28T15:29:22;15.60;22.80
71563;DHT22;59391;52.504;13.438;2023-02-28T15:31:55;15.20;22.90
71563;DHT22;59391;52.504;13.438;2023-02-28T15:34:39;14.70;23.40
71563;DHT22;59391;52.504;13.438;2023-02-28T15:39:53;13.80;24.70
71563;DHT22;59391;52.504;13.438;2023-02-28T15:42:22;13.50;24.80
71563;DHT22;59391;52.504;13.438;2023-02-28T15:44:52;13.20;25.00
71563;DHT22;59391;52.504;13.438;2023-02-28T15:47:24;12.90;25.50
71563;DHT22;59391;52.504;13.438;2023-02-28T15:50:03;12.60;25.60
71563;DHT22;59391;52.504;13.438;2023-02-28T15:52:41;12.30;26.00
71563;DHT22;59391;52.504;13.438;2023-02-28T15:55:22;12.00;26.50
71563;DHT22;59391;52.504;13.438;2023-02-28T15:57:59;11.70;27.60
71563;DHT22;59391;52.504;13.438;2023-02-28T16:00:29;11.50;27.50
71563;DHT22;59391;52.504;13.438;2023-02-28T16:02:58;11.30;27.50
71563;DHT22;59391;52.504;13.438;2023-02-28T16:05:28;11.10;27.60
71563;DHT22;59391;52.504;13.438;2023-02-28T16:08:14;10.80;27.80
71563;DHT22;59391;52.504;13.438;2023-02-28T16:10:40;10.60;28.10
71563;DHT22;59391;52.504;13.438;2023-02-28T16:13:08;10.40;28.40
71563;DHT22;59391;52.504;13.438;2023-02-28T16:15:38;10.20;28.70
71563;DHT22;59391;52.504;13.438;2023-02-28T16:18:10;10.00;29.30
71563;DHT22;59391;52.504;13.438;2023-02-28T16:20:37;9.90;29.50
71563;DHT22;59391;52.504;13.438;2023-02-28T16:23:03;9.80;29.80
71563;DHT22;59391;52.504;13.438;2023-02-28T16:25:40;9.70;29.90
71563;DHT22;59391;52.504;13.438;2023-02-28T16:28:15;9.50;30.20
71563;DHT22;59391;52.504;13.438;2023-02-28T16:30:44;9.50;30.10
71563;DHT22;59391;52.504;13.438;2023-02-28T16:33:10;9.30;30.30
71563;DHT22;59391;52.504;13.438;2023-02-28T16:35:35;9.20;30.40
71563;DHT22;59391;52.504;13.438;2023-02-28T16:38:01;9.10;30.60
71563;DHT22;59391;52.504;13.438;2023-02-28T16:40:27;9.00;30.90
71563;DHT22;59391;52.504;13.438;2023-02-28T16:42:58;8.80;30.90
71563;DHT22;59391;52.504;13.438;2023-02-28T16:45:27;8.70;31.20
71563;DHT22;59391;52.504;13.438;2023-02-28T16:47:54;8.60;31.50
71563;DHT22;59391;52.504;13.438;2023-02-28T16:50:26;8.50;31.60
71563;DHT22;59391;52.504;13.438;2023-02-28T16:52:54;8.40;31.90
71563;DHT22;59391;52.504;13.438;2023-02-28T16:55:22;8.30;32.20
71563;DHT22;59391;52.504;13.438;2023-02-28T16:57:57;8.20;32.40
71563;DHT22;59391;52.504;13.438;2023-02-28T17:00:24;8.20;32.50
71563;DHT22;59391;52.504;13.438;2023-02-28T17:02:51;8.10;32.80
71563;DHT22;59391;52.504;13.438;2023-02-28T17:05:17;8.00;33.00
71563;DHT22;59391;52.504;13.438;2023-02-28T17:07:44;7.90;33.40
71563;DHT22;59391;52.504;13.438;2023-02-28T17:10:22;7.80;33.30
71563;DHT22;59391;52.504;13.438;2023-02-28T17:12:50;7.70;33.60
71563;DHT22;59391;52.504;13.438;2023-02-28T17:15:17;7.70;33.50
71563;DHT22;59391;52.504;13.438;2023-02-28T17:17:45;7.70;33.90
71563;DHT22;59391;52.504;13.438;2023-02-28T17:20:18;7.60;33.80
71563;DHT22;59391;52.504;13.438;2023-02-28T17:22:50;7.60;33.90
71563;DHT22;59391;52.504;13.438;2023-02-28T17:25:16;7.60;33.90
71563;DHT22;59391;52.504;13.438;2023-02-28T17:27:42;7.50;34.20